createdAt,value
2019-01-02T00:00:35.626Z,73.46
2019-01-02T00:05:38.464Z,73.16
2019-01-02T00:11:00.753Z,74.96
2019-01-02T00:16:24.844Z,75.63
2019-01-02T00:21:47.041Z,75.17
2019-01-02T00:27:09.232Z,74.92
2019-01-02T00:32:33.306Z,75.96
2019-01-02T00:37:55.493Z,76.71
2019-01-02T00:43:17.681Z,78.30
2019-01-02T00:48:33.222Z,80.63
2019-01-02T00:53:55.391Z,81.38
2019-01-02T00:59:17.588Z,81.58
2019-01-02T01:04:39.791Z,80.88
2019-01-02T01:09:42.775Z,79.86
2019-01-02T01:15:05.538Z,79.46
2019-01-02T01:20:12.415Z,79.04
2019-01-02T01:25:15.097Z,78.43
2019-01-02T01:30:37.275Z,78.38
2019-01-02T01:36:01.358Z,77.95
2019-01-02T01:41:04.034Z,77.60
2019-01-02T01:46:07.432Z,76.78
2019-01-02T01:51:23.146Z,75.98
2019-01-02T01:56:25.815Z,75.77
2019-01-02T02:01:47.986Z,76.59
2019-01-02T02:07:10.180Z,77.79
2019-01-02T02:12:32.353Z,78.14
2019-01-02T02:17:35.038Z,78.24
2019-01-02T02:22:57.229Z,78.32
2019-01-02T02:28:21.319Z,78.04
2019-01-02T02:33:43.527Z,77.57
2019-01-02T02:38:48.304Z,77.45
2019-01-02T02:43:52.896Z,77.08
2019-01-02T02:48:55.600Z,76.82
2019-01-02T02:53:58.683Z,76.69
2019-01-02T02:59:21.077Z,75.82
2019-01-02T03:04:25.655Z,75.08
2019-01-02T03:09:48.228Z,74.53
2019-01-02T03:14:51.301Z,74.26
2019-01-02T03:20:20.953Z,73.84
2019-01-02T03:25:43.133Z,73.79
2019-01-02T03:30:47.700Z,73.48
2019-01-02T03:35:50.669Z,73.28
2019-01-02T03:41:12.859Z,72.95
2019-01-02T03:46:35.038Z,72.85
2019-01-02T03:51:50.808Z,73.00
2019-01-02T03:57:12.993Z,72.89
2019-01-02T04:02:15.661Z,72.66
2019-01-02T04:07:38.002Z,72.27
2019-01-02T04:13:00.182Z,72.10
2019-01-02T04:18:22.363Z,72.44
2019-01-02T04:23:44.548Z,72.40
2019-01-02T04:28:47.228Z,72.80
2019-01-02T04:34:09.404Z,72.86
2019-01-02T04:39:31.582Z,72.87
2019-01-02T04:44:34.247Z,73.36
2019-01-02T04:49:50.690Z,73.43
2019-01-02T04:54:53.416Z,73.44
2019-01-02T05:00:16.777Z,73.44
2019-01-02T05:05:38.970Z,73.53
2019-01-02T05:11:01.146Z,73.81
2019-01-02T05:16:23.332Z,73.95
2019-01-02T05:21:45.512Z,73.93
2019-01-02T05:27:07.765Z,73.96
2019-01-02T05:32:29.936Z,73.93
2019-01-02T05:37:32.607Z,73.03
2019-01-02T05:42:54.785Z,72.73
2019-01-02T05:48:10.707Z,71.96
2019-01-02T05:53:32.886Z,71.36
2019-01-02T05:58:55.077Z,71.29
2019-01-02T06:03:57.766Z,70.28
2019-01-02T06:09:19.960Z,69.94
2019-01-02T06:14:42.148Z,71.15
2019-01-02T06:20:07.559Z,72.29
2019-01-02T06:25:10.305Z,72.05
2019-01-02T06:30:13.140Z,72.11
2019-01-02T06:35:35.333Z,71.80
2019-01-02T06:40:57.518Z,71.91
2019-01-02T06:46:20.173Z,71.12
2019-01-02T06:51:37.111Z,70.83
2019-01-02T06:56:59.295Z,70.36
2019-01-02T07:02:21.477Z,70.30
2019-01-02T07:07:24.153Z,70.49
2019-01-02T07:12:46.327Z,70.33
2019-01-02T07:18:08.820Z,69.65
2019-01-02T07:23:31.021Z,69.49
2019-01-02T07:28:53.203Z,69.80
2019-01-02T07:34:38.024Z,69.85
2019-01-02T07:40:34.286Z,69.91
2019-01-02T07:46:35.468Z,69.77
2019-01-02T07:52:16.499Z,69.67
2019-01-02T07:58:20.725Z,69.15
2019-01-02T08:04:21.895Z,69.04
2019-01-02T08:10:27.383Z,69.01
2019-01-02T08:16:31.887Z,69.18
2019-01-02T08:22:33.053Z,68.68
2019-01-02T08:28:25.754Z,67.69
2019-01-02T08:34:26.872Z,66.69
2019-01-02T08:40:13.610Z,66.04
2019-01-02T08:46:14.781Z,65.72
2019-01-02T08:51:49.861Z,65.79
2019-01-02T08:57:51.033Z,64.86
2019-01-02T09:03:40.386Z,63.90
2019-01-02T09:09:30.513Z,62.69
2019-01-02T09:15:31.723Z,60.90
2019-01-02T09:21:21.100Z,60.25
2019-01-02T09:27:10.058Z,59.27
2019-01-02T09:33:11.245Z,58.19
2019-01-02T09:38:48.457Z,57.44
2019-01-02T09:44:49.639Z,56.87
2019-01-02T09:50:38.764Z,55.89
2019-01-02T09:56:26.568Z,54.54
2019-01-02T10:02:27.779Z,53.39
2019-01-02T10:08:28.942Z,53.42
2019-01-02T10:14:30.129Z,53.50
2019-01-02T10:20:31.285Z,52.08
2019-01-02T10:26:17.677Z,52.50
2019-01-02T10:32:18.844Z,50.67
2019-01-02T10:38:13.697Z,50.33
2019-01-02T10:44:03.366Z,50.09
2019-01-02T10:50:04.602Z,50.45
2019-01-02T10:55:26.031Z,49.86
2019-01-02T11:01:22.521Z,49.55
2019-01-02T11:07:23.715Z,50.32
2019-01-02T11:13:10.704Z,49.73
2019-01-02T11:19:04.194Z,49.38
2019-01-02T11:24:56.476Z,49.00
2019-01-02T11:30:45.434Z,48.63
2019-01-02T11:36:46.601Z,48.82
2019-01-02T11:42:33.317Z,49.88
2019-01-02T11:47:36.018Z,48.72
2019-01-02T11:52:58.202Z,48.08
2019-01-02T11:58:20.386Z,47.97
2019-01-02T12:03:42.687Z,49.03
2019-01-02T12:08:45.391Z,48.24
2019-01-02T12:14:07.701Z,46.86
2019-01-02T12:19:10.447Z,46.07
2019-01-02T12:24:13.156Z,45.16
2019-01-02T12:29:15.831Z,45.25
2019-01-02T12:39:34.872Z,47.30
2019-01-02T12:44:37.546Z,44.56
2019-01-02T12:49:40.242Z,44.81
2019-01-02T12:55:03.677Z,44.95
2019-01-02T13:00:47.668Z,45.12
2019-01-02T13:06:48.884Z,44.82
2019-01-02T13:12:33.385Z,43.75
2019-01-02T13:18:34.591Z,44.16
2019-01-02T13:24:06.787Z,44.65
2019-01-02T13:30:07.959Z,44.64
2019-01-02T13:35:53.483Z,44.60
2019-01-02T13:41:38.319Z,44.47
2019-01-02T13:47:26.567Z,44.33
2019-01-02T13:52:41.450Z,44.03
2019-01-02T13:58:03.633Z,43.62
2019-01-02T14:03:27.095Z,43.10
2019-01-02T14:08:31.622Z,44.32
2019-01-02T14:13:55.842Z,42.70
2019-01-02T14:18:59.773Z,42.55
2019-01-02T14:24:23.620Z,43.33
2019-01-02T14:29:47.683Z,43.72
2019-01-02T14:35:09.904Z,44.30
2019-01-02T14:40:32.106Z,44.88
2019-01-02T14:45:34.794Z,45.17
2019-01-02T14:50:51.037Z,45.45
2019-01-02T14:56:13.218Z,45.56
2019-01-02T15:01:35.416Z,46.49
2019-01-02T15:06:38.108Z,46.71
2019-01-02T15:12:00.330Z,47.68
2019-01-02T15:17:03.020Z,47.55
2019-01-02T15:22:05.769Z,47.84
2019-01-02T15:27:08.446Z,48.07
2019-01-02T15:32:30.734Z,48.08
2019-01-02T15:37:52.918Z,48.55
2019-01-02T15:43:15.103Z,50.36
2019-01-02T15:48:17.813Z,49.88
2019-01-02T15:53:40.260Z,50.64
2019-01-02T15:59:02.453Z,50.40
2019-01-02T16:04:24.685Z,50.84
2019-01-02T16:09:46.882Z,51.54
2019-01-02T16:14:49.685Z,51.71
2019-01-02T16:19:52.383Z,51.80
2019-01-02T16:30:09.893Z,52.17
2019-01-02T16:35:12.597Z,52.25
2019-01-02T16:40:34.791Z,52.50
2019-01-02T16:45:37.487Z,52.82
2019-01-02T16:50:40.325Z,52.90
2019-01-02T16:56:02.507Z,53.19
2019-01-02T17:01:24.700Z,53.23
2019-01-02T17:06:46.892Z,53.41
2019-01-02T17:12:09.071Z,54.14
2019-01-02T17:17:31.259Z,55.95
2019-01-02T17:22:53.443Z,57.59
2019-01-02T17:27:56.139Z,58.36
2019-01-02T17:33:18.332Z,59.22
2019-01-02T17:38:21.024Z,59.08
2019-01-02T17:43:43.212Z,59.74
2019-01-02T17:48:45.916Z,60.09
2019-01-02T17:54:08.102Z,59.83
2019-01-02T17:59:10.797Z,59.77
2019-01-02T18:04:33.028Z,60.13
2019-01-02T18:09:55.223Z,60.43
2019-01-02T18:15:17.406Z,60.94
2019-01-02T18:20:39.617Z,61.53
2019-01-02T18:26:01.768Z,61.83
2019-01-02T18:31:06.085Z,61.34
2019-01-02T18:36:09.052Z,61.70
2019-01-02T18:46:41.858Z,62.23
2019-01-02T18:51:57.651Z,62.28
2019-01-02T18:57:19.840Z,62.67
2019-01-02T19:02:42.033Z,63.13
2019-01-02T19:07:44.807Z,63.30
2019-01-02T19:13:07.091Z,63.77
2019-01-02T19:18:29.274Z,63.78
2019-01-02T19:23:31.974Z,64.11
2019-01-02T19:28:54.170Z,64.07
2019-01-02T19:34:16.365Z,64.01
2019-01-02T19:39:38.552Z,64.08
2019-01-02T19:45:00.748Z,64.29
2019-01-02T19:50:16.215Z,64.67
2019-01-02T19:55:38.426Z,64.75
2019-01-02T20:01:00.604Z,65.04
2019-01-02T20:06:22.854Z,65.08
2019-01-02T20:11:45.048Z,65.36
2019-01-02T20:16:47.775Z,65.54
2019-01-02T20:21:50.545Z,65.72
2019-01-02T20:27:12.732Z,65.99
2019-01-02T20:32:34.911Z,66.08
2019-01-02T20:37:57.097Z,66.35
2019-01-02T20:43:19.278Z,66.34
2019-01-02T20:48:34.387Z,66.42
2019-01-02T20:53:56.569Z,66.70
2019-01-02T20:58:59.322Z,66.73
2019-01-02T21:04:02.027Z,67.04
2019-01-02T21:09:07.104Z,67.28
2019-01-02T21:14:29.286Z,67.37
2019-01-02T21:19:51.484Z,67.46
2019-01-02T21:25:13.678Z,67.55
2019-01-02T21:30:16.346Z,67.67
2019-01-02T21:35:38.539Z,67.81
2019-01-02T21:41:02.529Z,67.89
2019-01-02T21:46:05.207Z,67.70
2019-01-02T21:51:20.113Z,68.32
2019-01-02T21:56:23.053Z,68.24
2019-01-02T22:01:45.302Z,68.66
2019-01-02T22:06:47.997Z,68.78
2019-01-02T22:12:10.177Z,68.69
2019-01-02T22:17:32.354Z,68.55
2019-01-02T22:22:35.078Z,68.69
2019-01-02T22:27:57.363Z,68.75
2019-01-02T22:33:19.546Z,68.97
2019-01-02T22:38:41.732Z,68.85
2019-01-02T22:43:44.402Z,68.16
2019-01-02T22:48:47.117Z,68.10
2019-01-02T22:54:09.296Z,68.00
2019-01-02T22:59:31.480Z,68.45
2019-01-02T23:05:13.264Z,68.14
2019-01-02T23:10:55.087Z,68.35
2019-01-02T23:16:36.916Z,68.26
2019-01-02T23:22:18.730Z,67.98
2019-01-02T23:27:41.018Z,68.15
2019-01-02T23:33:22.793Z,68.18
2019-01-02T23:38:45.071Z,68.30
2019-01-02T23:44:07.421Z,68.33
2019-01-02T23:49:44.626Z,68.21
2019-01-02T23:55:15.053Z,68.30
